sensor_id;sensor_type;location;lat;lon;timestamp;pressure;altitude;pressure_sealevel;temperature;humidity
56928;BME280;60850;52.502;13.426;2024-02-26T00:00:23;100018.16;;;4.89;100.00
56928;BME280;60850;52.502;13.426;2024-02-26T00:03:12;100016.38;;;4.91;100.00
56928;BME280;60850;52.502;13.426;2024-02-26T00:05:39;100021.84;;;4.79;100.00
56928;BME280;60850;52.502;13.426;2024-02-26T00:08:06;100024.09;;;5.05;100.00
56928;BME280;60850;52.502;13.426;2024-02-26T00:10:33;100022.53;;;4.93;100.00
56928;BME280;60850;52.502;13.426;2024-02-26T00:13:00;100018.84;;;5.04;100.00
56928;BME280;60850;52.502;13.426;2024-02-26T00:15:27;100010.91;;;5.04;100.00
56928;BME280;60850;52.502;13.426;2024-02-26T00:17:54;100008.25;;;5.04;100.00
56928;BME280;60850;52.502;13.426;2024-02-26T00:20:23;100010.16;;;4.95;100.00
56928;BME280;60850;52.502;13.426;2024-02-26T00:22:49;100004.28;;;4.75;100.00
56928;BME280;60850;52.502;13.426;2024-02-26T00:25:17;100008.44;;;4.91;100.00
56928;BME280;60850;52.502;13.426;2024-02-26T00:27:44;100006.66;;;4.95;100.00
56928;BME280;60850;52.502;13.426;2024-02-26T00:30:11;100007.66;;;4.86;100.00
56928;BME280;60850;52.502;13.426;2024-02-26T00:32:38;100009.31;;;4.92;100.00
56928;BME280;60850;52.502;13.426;2024-02-26T00:35:06;100017.41;;;4.81;100.00
56928;BME280;60850;52.502;13.426;2024-02-26T00:37:36;100014.94;;;4.69;100.00
56928;BME280;60850;52.502;13.426;2024-02-26T00:40:04;100015.97;;;4.57;100.00
56928;BME280;60850;52.502;13.426;2024-02-26T00:42:32;100008.25;;;4.45;100.00
56928;BME280;60850;52.502;13.426;2024-02-26T00:44:59;100004.91;;;4.31;100.00
56928;BME280;60850;52.502;13.426;2024-02-26T00:47:26;99997.03;;;4.28;100.00
56928;BME280;60850;52.502;13.426;2024-02-26T00:49:53;99990.59;;;4.49;100.00
56928;BME280;60850;52.502;13.426;2024-02-26T00:52:20;100005.50;;;4.53;100.00
56928;BME280;60850;52.502;13.426;2024-02-26T00:54:49;99993.41;;;4.35;100.00
56928;BME280;60850;52.502;13.426;2024-02-26T00:57:16;99992.47;;;4.40;100.00
56928;BME280;60850;52.502;13.426;2024-02-26T00:59:43;99993.63;;;4.20;100.00
56928;BME280;60850;52.502;13.426;2024-02-26T01:02:10;99994.53;;;4.16;100.00
56928;BME280;60850;52.502;13.426;2024-02-26T01:04:37;99990.19;;;4.13;100.00
56928;BME280;60850;52.502;13.426;2024-02-26T01:07:04;99987.28;;;4.33;100.00
56928;BME280;60850;52.502;13.426;2024-02-26T01:09:31;99982.97;;;4.27;100.00
56928;BME280;60850;52.502;13.426;2024-02-26T01:12:00;99977.00;;;4.11;100.00
56928;BME280;60850;52.502;13.426;2024-02-26T01:14:28;99989.25;;;4.16;100.00
56928;BME280;60850;52.502;13.426;2024-02-26T01:16:55;99990.00;;;4.27;100.00
56928;BME280;60850;52.502;13.426;2024-02-26T01:19:22;99995.47;;;4.13;100.00
56928;BME280;60850;52.502;13.426;2024-02-26T01:21:49;99992.78;;;4.18;100.00
56928;BME280;60850;52.502;13.426;2024-02-26T01:24:16;99996.38;;;4.10;100.00
56928;BME280;60850;52.502;13.426;2024-02-26T01:26:44;99997.97;;;4.24;100.00
56928;BME280;60850;52.502;13.426;2024-02-26T01:29:12;99989.25;;;4.17;100.00
56928;BME280;60850;52.502;13.426;2024-02-26T01:31:39;99989.97;;;4.28;100.00
56928;BME280;60850;52.502;13.426;2024-02-26T01:34:06;99987.19;;;4.40;100.00
56928;BME280;60850;52.502;13.426;2024-02-26T01:36:33;99982.00;;;4.34;100.00
56928;BME280;60850;52.502;13.426;2024-02-26T01:39:01;99980.44;;;4.20;100.00
56928;BME280;60850;52.502;13.426;2024-02-26T01:41:29;99980.38;;;4.24;100.00
56928;BME280;60850;52.502;13.426;2024-02-26T01:43:56;99974.34;;;4.13;100.00
56928;BME280;60850;52.502;13.426;2024-02-26T01:46:24;99974.13;;;4.30;100.00
56928;BME280;60850;52.502;13.426;2024-02-26T01:48:52;99974.13;;;4.31;100.00
56928;BME280;60850;52.502;13.426;2024-02-26T01:51:19;99973.44;;;4.16;100.00
56928;BME280;60850;52.502;13.426;2024-02-26T01:53:46;99982.13;;;4.22;100.00
56928;BME280;60850;52.502;13.426;2024-02-26T01:56:15;99981.28;;;4.23;100.00
56928;BME280;60850;52.502;13.426;2024-02-26T01:58:43;99980.31;;;4.27;100.00
56928;BME280;60850;52.502;13.426;2024-02-26T02:01:10;99976.97;;;4.14;100.00
56928;BME280;60850;52.502;13.426;2024-02-26T02:03:40;99982.25;;;4.16;100.00
56928;BME280;60850;52.502;13.426;2024-02-26T02:06:07;99988.16;;;4.33;100.00
56928;BME280;60850;52.502;13.426;2024-02-26T02:08:35;99991.91;;;4.14;100.00
56928;BME280;60850;52.502;13.426;2024-02-26T02:11:03;99985.75;;;4.15;100.00
56928;BME280;60850;52.502;13.426;2024-02-26T02:13:30;99983.00;;;4.24;100.00
56928;BME280;60850;52.502;13.426;2024-02-26T02:15:57;99984.84;;;4.19;100.00
56928;BME280;60850;52.502;13.426;2024-02-26T02:18:24;99980.47;;;4.17;100.00
56928;BME280;60850;52.502;13.426;2024-02-26T02:20:53;99983.00;;;4.24;100.00
56928;BME280;60850;52.502;13.426;2024-02-26T02:23:22;99976.28;;;4.02;100.00
56928;BME280;60850;52.502;13.426;2024-02-26T02:25:48;99977.16;;;3.99;100.00
56928;BME280;60850;52.502;13.426;2024-02-26T02:28:16;99987.03;;;3.83;100.00
56928;BME280;60850;52.502;13.426;2024-02-26T02:30:43;99996.81;;;3.74;100.00
56928;BME280;60850;52.502;13.426;2024-02-26T02:33:10;99988.81;;;3.78;100.00
56928;BME280;60850;52.502;13.426;2024-02-26T02:35:38;99983.63;;;3.74;100.00
56928;BME280;60850;52.502;13.426;2024-02-26T02:38:06;99987.13;;;3.74;100.00
56928;BME280;60850;52.502;13.426;2024-02-26T02:40:33;99986.34;;;3.63;100.00
56928;BME280;60850;52.502;13.426;2024-02-26T02:43:00;99996.13;;;3.52;100.00
56928;BME280;60850;52.502;13.426;2024-02-26T02:45:27;99997.13;;;3.40;100.00
56928;BME280;60850;52.502;13.426;2024-02-26T02:47:55;100005.16;;;3.23;100.00
56928;BME280;60850;52.502;13.426;2024-02-26T02:50:22;100003.41;;;3.25;100.00
56928;BME280;60850;52.502;13.426;2024-02-26T02:52:49;100005.19;;;3.25;100.00
56928;BME280;60850;52.502;13.426;2024-02-26T02:55:18;100008.69;;;3.25;100.00
56928;BME280;60850;52.502;13.426;2024-02-26T02:57:45;100013.16;;;3.14;100.00
56928;BME280;60850;52.502;13.426;2024-02-26T03:00:13;100003.50;;;3.13;100.00
56928;BME280;60850;52.502;13.426;2024-02-26T03:06:19;100009.75;;;3.01;100.00
56928;BME280;60850;52.502;13.426;2024-02-26T03:08:46;100006.25;;;2.99;100.00
56928;BME280;60850;52.502;13.426;2024-02-26T03:11:15;100003.59;;;3.04;100.00
56928;BME280;60850;52.502;13.426;2024-02-26T03:13:42;100007.00;;;3.18;100.00
56928;BME280;60850;52.502;13.426;2024-02-26T03:16:09;100008.81;;;3.09;100.00
56928;BME280;60850;52.502;13.426;2024-02-26T03:18:38;100009.63;;;3.18;100.00
56928;BME280;60850;52.502;13.426;2024-02-26T03:21:06;100005.31;;;3.08;100.00
56928;BME280;60850;52.502;13.426;2024-02-26T03:23:32;100008.81;;;3.10;100.00
56928;BME280;60850;52.502;13.426;2024-02-26T03:26:03;100005.41;;;2.97;100.00
56928;BME280;60850;52.502;13.426;2024-02-26T03:28:31;100006.34;;;2.90;100.00
56928;BME280;60850;52.502;13.426;2024-02-26T03:30:59;100005.47;;;2.87;100.00
56928;BME280;60850;52.502;13.426;2024-02-26T03:33:26;100009.59;;;3.17;100.00
56928;BME280;60850;52.502;13.426;2024-02-26T03:35:53;99996.50;;;3.12;100.00
56928;BME280;60850;52.502;13.426;2024-02-26T03:38:20;99994.81;;;3.02;100.00
56928;BME280;60850;52.502;13.426;2024-02-26T03:40:47;99999.31;;;2.86;100.00
56928;BME280;60850;52.502;13.426;2024-02-26T03:43:14;100004.66;;;2.79;100.00
56928;BME280;60850;52.502;13.426;2024-02-26T03:45:42;100001.97;;;2.82;100.00
56928;BME280;60850;52.502;13.426;2024-02-26T03:48:09;100014.25;;;2.84;100.00
56928;BME280;60850;52.502;13.426;2024-02-26T03:50:36;100009.84;;;2.88;100.00
56928;BME280;60850;52.502;13.426;2024-02-26T03:53:04;100012.53;;;2.80;100.00
56928;BME280;60850;52.502;13.426;2024-02-26T03:55:31;100009.94;;;2.72;100.00
56928;BME280;60850;52.502;13.426;2024-02-26T03:57:58;100009.91;;;2.80;100.00
56928;BME280;60850;52.502;13.426;2024-02-26T04:00:25;100020.47;;;2.72;100.00
56928;BME280;60850;52.502;13.426;2024-02-26T04:02:55;100022.97;;;2.92;100.00
56928;BME280;60850;52.502;13.426;2024-02-26T04:05:23;100017.69;;;2.95;100.00
56928;BME280;60850;52.502;13.426;2024-02-26T04:07:50;100011.38;;;3.16;100.00
56928;BME280;60850;52.502;13.426;2024-02-26T04:10:18;100015.81;;;3.11;100.00
56928;BME280;60850;52.502;13.426;2024-02-26T04:12:45;100012.16;;;3.29;100.00
56928;BME280;60850;52.502;13.426;2024-02-26T04:15:12;100022.72;;;3.27;100.00
56928;BME280;60850;52.502;13.426;2024-02-26T04:17:40;100024.41;;;3.35;100.00
56928;BME280;60850;52.502;13.426;2024-02-26T04:20:13;100025.31;;;3.32;100.00
56928;BME280;60850;52.502;13.426;2024-02-26T04:22:41;100023.41;;;3.48;100.00
56928;BME280;60850;52.502;13.426;2024-02-26T04:25:08;100027.94;;;3.34;100.00
56928;BME280;60850;52.502;13.426;2024-02-26T04:27:35;100020.91;;;3.31;100.00
56928;BME280;60850;52.502;13.426;2024-02-26T04:30:03;100023.47;;;3.42;100.00
56928;BME280;60850;52.502;13.426;2024-02-26T04:32:30;100026.06;;;3.43;100.00
56928;BME280;60850;52.502;13.426;2024-02-26T04:34:57;100030.38;;;3.52;100.00
56928;BME280;60850;52.502;13.426;2024-02-26T04:37:26;100036.44;;;3.63;100.00
56928;BME280;60850;52.502;13.426;2024-02-26T04:39:57;100042.66;;;3.56;100.00
56928;BME280;60850;52.502;13.426;2024-02-26T04:42:24;100043.56;;;3.52;100.00
56928;BME280;60850;52.502;13.426;2024-02-26T04:44:52;100044.44;;;3.54;100.00
56928;BME280;60850;52.502;13.426;2024-02-26T04:47:19;100062.03;;;3.49;100.00
56928;BME280;60850;52.502;13.426;2024-02-26T04:49:48;100060.41;;;3.36;100.00
56928;BME280;60850;52.502;13.426;2024-02-26T04:52:18;100062.25;;;3.23;100.00
56928;BME280;60850;52.502;13.426;2024-02-26T04:54:47;100064.91;;;3.21;100.00
56928;BME280;60850;52.502;13.426;2024-02-26T04:57:13;100062.28;;;3.17;100.00
56928;BME280;60850;52.502;13.426;2024-02-26T04:59:41;100064.94;;;3.15;100.00
56928;BME280;60850;52.502;13.426;2024-02-26T05:02:08;100062.38;;;3.08;100.00
56928;BME280;60850;52.502;13.426;2024-02-26T05:04:35;100057.13;;;3.05;100.00
56928;BME280;60850;52.502;13.426;2024-02-26T05:07:02;100059.66;;;3.15;100.00
56928;BME280;60850;52.502;13.426;2024-02-26T05:09:29;100063.03;;;3.36;100.00
56928;BME280;60850;52.502;13.426;2024-02-26T05:11:57;100067.44;;;3.30;100.00
56928;BME280;60850;52.502;13.426;2024-02-26T05:14:25;100066.78;;;3.04;100.00
56928;BME280;60850;52.502;13.426;2024-02-26T05:16:52;100074.66;;;3.07;100.00
56928;BME280;60850;52.502;13.426;2024-02-26T05:19:19;100075.50;;;3.12;100.00
56928;BME280;60850;52.502;13.426;2024-02-26T05:21:46;100083.34;;;3.20;100.00
56928;BME280;60850;52.502;13.426;2024-02-26T05:24:15;100090.28;;;3.30;100.00
56928;BME280;60850;52.502;13.426;2024-02-26T05:26:42;100089.44;;;3.26;100.00
56928;BME280;60850;52.502;13.426;2024-02-26T05:29:11;100085.81;;;3.43;100.00
56928;BME280;60850;52.502;13.426;2024-02-26T05:31:38;100087.59;;;3.38;100.00
56928;BME280;60850;52.502;13.426;2024-02-26T05:34:05;100086.59;;;3.54;100.00
56928;BME280;60850;52.502;13.426;2024-02-26T05:36:32;100089.16;;;3.62;100.00
56928;BME280;60850;52.502;13.426;2024-02-26T05:39:00;100088.28;;;3.61;100.00
56928;BME280;60850;52.502;13.426;2024-02-26T05:41:27;100080.34;;;3.64;100.00
56928;BME280;60850;52.502;13.426;2024-02-26T05:43:54;100093.47;;;3.72;100.00
56928;BME280;60850;52.502;13.426;2024-02-26T05:46:22;100084.66;;;3.76;100.00
56928;BME280;60850;52.502;13.426;2024-02-26T05:48:51;100086.59;;;3.54;100.00
56928;BME280;60850;52.502;13.426;2024-02-26T05:51:18;100092.72;;;3.56;100.00
56928;BME280;60850;52.502;13.426;2024-02-26T05:53:45;100098.88;;;3.56;100.00
56928;BME280;60850;52.502;13.426;2024-02-26T05:56:19;100093.63;;;3.53;100.00
56928;BME280;60850;52.502;13.426;2024-02-26T05:58:47;100111.31;;;3.36;100.00
56928;BME280;60850;52.502;13.426;2024-02-26T06:01:15;100106.03;;;3.38;100.00
56928;BME280;60850;52.502;13.426;2024-02-26T06:03:44;100112.19;;;3.40;100.00
56928;BME280;60850;52.502;13.426;2024-02-26T06:06:11;100105.06;;;3.49;100.00
56928;BME280;60850;52.502;13.426;2024-02-26T06:08:38;100113.97;;;3.39;100.00
56928;BME280;60850;52.502;13.426;2024-02-26T06:11:06;100121.09;;;3.22;100.00
56928;BME280;60850;52.502;13.426;2024-02-26T06:13:33;100113.16;;;3.23;100.00
56928;BME280;60850;52.502;13.426;2024-02-26T06:16:01;100124.59;;;3.22;100.00
56928;BME280;60850;52.502;13.426;2024-02-26T06:18:28;100121.94;;;3.25;100.00
56928;BME280;60850;52.502;13.426;2024-02-26T06:20:56;100119.25;;;3.35;100.00
56928;BME280;60850;52.502;13.426;2024-02-26T06:23:24;100118.22;;;3.54;100.00
56928;BME280;60850;52.502;13.426;2024-02-26T06:25:51;100121.41;;;3.91;100.00
56928;BME280;60850;52.502;13.426;2024-02-26T06:28:18;100115.88;;;4.16;100.00
56928;BME280;60850;52.502;13.426;2024-02-26T06:30:45;100119.47;;;4.08;100.00
56928;BME280;60850;52.502;13.426;2024-02-26T06:33:13;100111.50;;;4.14;100.00
56928;BME280;60850;52.502;13.426;2024-02-26T06:35:39;100116.38;;;4.50;100.00
56928;BME280;60850;52.502;13.426;2024-02-26T06:38:08;100116.72;;;4.94;100.00
56928;BME280;60850;52.502;13.426;2024-02-26T06:40:38;100123.31;;;5.24;100.00
56928;BME280;60850;52.502;13.426;2024-02-26T06:43:05;100125.16;;;5.75;100.00
56928;BME280;60850;52.502;13.426;2024-02-26T06:45:32;100132.97;;;5.83;100.00
56928;BME280;60850;52.502;13.426;2024-02-26T06:47:59;100140.69;;;5.96;100.00
56928;BME280;60850;52.502;13.426;2024-02-26T06:50:26;100130.94;;;6.91;100.00
56928;BME280;60850;52.502;13.426;2024-02-26T06:52:53;100133.88;;;7.56;100.00
56928;BME280;60850;52.502;13.426;2024-02-26T06:55:22;100137.75;;;7.79;100.00
56928;BME280;60850;52.502;13.426;2024-02-26T06:57:49;100148.56;;;7.32;100.00
56928;BME280;60850;52.502;13.426;2024-02-26T07:00:16;100143.53;;;7.59;100.00
56928;BME280;60850;52.502;13.426;2024-02-26T07:02:44;100141.25;;;7.05;100.00
56928;BME280;60850;52.502;13.426;2024-02-26T07:05:11;100147.47;;;7.02;100.00
56928;BME280;60850;52.502;13.426;2024-02-26T07:07:38;100154.84;;;6.88;100.00
56928;BME280;60850;52.502;13.426;2024-02-26T07:10:06;100155.84;;;7.23;100.00
56928;BME280;60850;52.502;13.426;2024-02-26T07:12:35;100164.09;;;7.49;100.00
56928;BME280;60850;52.502;13.426;2024-02-26T07:15:02;100161.81;;;7.32;100.00
56928;BME280;60850;52.502;13.426;2024-02-26T07:17:29;100159.03;;;7.40;100.00
56928;BME280;60850;52.502;13.426;2024-02-26T07:19:56;100159.69;;;7.09;100.00
56928;BME280;60850;52.502;13.426;2024-02-26T07:22:23;100159.22;;;6.89;100.00
56928;BME280;60850;52.502;13.426;2024-02-26T07:24:51;100161.16;;;7.23;100.00
56928;BME280;60850;52.502;13.426;2024-02-26T07:27:18;100159.53;;;6.74;100.00
56928;BME280;60850;52.502;13.426;2024-02-26T07:29:48;100162.00;;;6.38;100.00
56928;BME280;60850;52.502;13.426;2024-02-26T07:32:15;100164.75;;;6.32;100.00
56928;BME280;60850;52.502;13.426;2024-02-26T07:34:42;100170.38;;;6.15;100.00
56928;BME280;60850;52.502;13.426;2024-02-26T07:37:10;100168.41;;;6.25;100.00
56928;BME280;60850;52.502;13.426;2024-02-26T07:39:37;100168.28;;;6.32;100.00
56928;BME280;60850;52.502;13.426;2024-02-26T07:42:05;100164.34;;;6.05;100.00
56928;BME280;60850;52.502;13.426;2024-02-26T07:44:32;100163.34;;;6.13;100.00
56928;BME280;60850;52.502;13.426;2024-02-26T07:47:01;100160.69;;;6.13;100.00
56928;BME280;60850;52.502;13.426;2024-02-26T07:49:28;100156.03;;;6.27;100.00
56928;BME280;60850;52.502;13.426;2024-02-26T07:51:55;100160.81;;;6.54;100.00
56928;BME280;60850;52.502;13.426;2024-02-26T07:54:23;100156.69;;;6.83;100.00
56928;BME280;60850;52.502;13.426;2024-02-26T07:56:50;100157.66;;;6.80;100.00
56928;BME280;60850;52.502;13.426;2024-02-26T07:59:18;100160.69;;;7.44;100.00
56928;BME280;60850;52.502;13.426;2024-02-26T08:01:49;100161.38;;;7.88;100.00
56928;BME280;60850;52.502;13.426;2024-02-26T08:04:17;100154.03;;;8.66;100.00
56928;BME280;60850;52.502;13.426;2024-02-26T08:06:45;100164.72;;;7.96;100.00
56928;BME280;60850;52.502;13.426;2024-02-26T08:09:12;100159.56;;;7.54;100.00
56928;BME280;60850;52.502;13.426;2024-02-26T08:11:39;100162.84;;;7.27;100.00
56928;BME280;60850;52.502;13.426;2024-02-26T08:14:06;100168.63;;;7.44;100.00
56928;BME280;60850;52.502;13.426;2024-02-26T08:16:33;100171.59;;;7.30;100.00
56928;BME280;60850;52.502;13.426;2024-02-26T08:19:00;100167.88;;;7.76;100.00
56928;BME280;60850;52.502;13.426;2024-02-26T08:21:29;100173.38;;;7.68;100.00
56928;BME280;60850;52.502;13.426;2024-02-26T08:23:56;100171.94;;;7.91;100.00
56928;BME280;60850;52.502;13.426;2024-02-26T08:26:23;100168.97;;;8.03;100.00
56928;BME280;60850;52.502;13.426;2024-02-26T08:28:51;100170.56;;;8.10;100.00
56928;BME280;60850;52.502;13.426;2024-02-26T08:31:18;100152.84;;;9.07;100.00
56928;BME280;60850;52.502;13.426;2024-02-26T08:33:45;100154.50;;;9.41;100.00
56928;BME280;60850;52.502;13.426;2024-02-26T08:36:13;100158.66;;;10.80;100.00
56928;BME280;60850;52.502;13.426;2024-02-26T08:38:41;100159.16;;;11.82;100.00
56928;BME280;60850;52.502;13.426;2024-02-26T08:41:08;100154.09;;;12.79;100.00
56928;BME280;60850;52.502;13.426;2024-02-26T08:43:36;100151.22;;;12.84;100.00
56928;BME280;60850;52.502;13.426;2024-02-26T08:46:03;100143.47;;;12.17;100.00
56928;BME280;60850;52.502;13.426;2024-02-26T08:48:30;100149.19;;;12.89;98.92
56928;BME280;60850;52.502;13.426;2024-02-26T08:50:57;100146.66;;;12.86;95.87
56928;BME280;60850;52.502;13.426;2024-02-26T08:53:24;100150.09;;;13.84;96.64
56928;BME280;60850;52.502;13.426;2024-02-26T08:55:54;100143.94;;;13.82;90.07
56928;BME280;60850;52.502;13.426;2024-02-26T08:58:20;100147.00;;;14.10;87.03
56928;BME280;60850;52.502;13.426;2024-02-26T09:00:48;100141.53;;;14.81;84.20
56928;BME280;60850;52.502;13.426;2024-02-26T09:03:14;100145.50;;;13.50;87.18
56928;BME280;60850;52.502;13.426;2024-02-26T09:05:42;100148.50;;;13.80;85.61
56928;BME280;60850;52.502;13.426;2024-02-26T09:08:09;100139.97;;;15.10;81.36
56928;BME280;60850;52.502;13.426;2024-02-26T09:10:36;100151.88;;;14.37;85.03
56928;BME280;60850;52.502;13.426;2024-02-26T09:13:04;100153.22;;;13.74;84.38
56928;BME280;60850;52.502;13.426;2024-02-26T09:15:32;100141.69;;;13.72;85.06
56928;BME280;60850;52.502;13.426;2024-02-26T09:17:59;100149.78;;;12.77;93.95
56928;BME280;60850;52.502;13.426;2024-02-26T09:20:26;100146.41;;;12.10;96.83
56928;BME280;60850;52.502;13.426;2024-02-26T09:22:53;100149.00;;;11.01;100.00
56928;BME280;60850;52.502;13.426;2024-02-26T09:25:20;100151.88;;;10.47;100.00
56928;BME280;60850;52.502;13.426;2024-02-26T09:27:47;100152.09;;;10.14;100.00
56928;BME280;60850;52.502;13.426;2024-02-26T09:30:16;100155.25;;;10.27;100.00
56928;BME280;60850;52.502;13.426;2024-02-26T09:32:46;100151.81;;;10.23;100.00
56928;BME280;60850;52.502;13.426;2024-02-26T09:35:14;100158.88;;;10.24;100.00
56928;BME280;60850;52.502;13.426;2024-02-26T09:37:40;100163.19;;;10.00;100.00
56928;BME280;60850;52.502;13.426;2024-02-26T09:40:10;100156.28;;;10.21;100.00
56928;BME280;60850;52.502;13.426;2024-02-26T09:42:42;100148.63;;;10.38;100.00
56928;BME280;60850;52.502;13.426;2024-02-26T09:45:11;100163.91;;;10.58;100.00
56928;BME280;60850;52.502;13.426;2024-02-26T09:47:41;100157.81;;;10.55;100.00
56928;BME280;60850;52.502;13.426;2024-02-26T09:50:09;100156.78;;;10.59;100.00
56928;BME280;60850;52.502;13.426;2024-02-26T09:52:38;100159.31;;;10.87;100.00
56928;BME280;60850;52.502;13.426;2024-02-26T09:55:07;100160.69;;;10.97;100.00
56928;BME280;60850;52.502;13.426;2024-02-26T09:57:36;100164.69;;;10.85;100.00
56928;BME280;60850;52.502;13.426;2024-02-26T10:00:05;100160.25;;;10.61;100.00
56928;BME280;60850;52.502;13.426;2024-02-26T10:02:36;100168.47;;;10.55;100.00
56928;BME280;60850;52.502;13.426;2024-02-26T10:05:10;100173.47;;;10.89;100.00
56928;BME280;60850;52.502;13.426;2024-02-26T10:07:38;100177.22;;;10.83;100.00
56928;BME280;60850;52.502;13.426;2024-02-26T10:10:08;100177.34;;;10.30;100.00
56928;BME280;60850;52.502;13.426;2024-02-26T10:12:35;100169.94;;;10.63;100.00
56928;BME280;60850;52.502;13.426;2024-02-26T10:15:02;100173.97;;;10.75;100.00
56928;BME280;60850;52.502;13.426;2024-02-26T10:17:29;100173.63;;;10.84;100.00
56928;BME280;60850;52.502;13.426;2024-02-26T10:20:12;100171.28;;;10.75;100.00
56928;BME280;60850;52.502;13.426;2024-02-26T10:22:41;100164.31;;;10.71;100.00
56928;BME280;60850;52.502;13.426;2024-02-26T10:25:08;100165.59;;;10.86;100.00
56928;BME280;60850;52.502;13.426;2024-02-26T10:27:35;100169.66;;;10.71;100.00
56928;BME280;60850;52.502;13.426;2024-02-26T10:30:03;100168.41;;;10.56;100.00
56928;BME280;60850;52.502;13.426;2024-02-26T10:32:32;100170.56;;;10.71;100.00
56928;BME280;60850;52.502;13.426;2024-02-26T10:34:59;100172.78;;;10.59;100.00
56928;BME280;60850;52.502;13.426;2024-02-26T10:37:27;100165.31;;;10.68;100.00
56928;BME280;60850;52.502;13.426;2024-02-26T10:39:54;100163.69;;;10.64;100.00
56928;BME280;60850;52.502;13.426;2024-02-26T10:42:21;100166.66;;;10.80;100.00
56928;BME280;60850;52.502;13.426;2024-02-26T10:44:48;100163.28;;;10.75;100.00
56928;BME280;60850;52.502;13.426;2024-02-26T10:47:16;100165.03;;;10.76;100.00
56928;BME280;60850;52.502;13.426;2024-02-26T10:49:46;100169.22;;;10.83;100.00
56928;BME280;60850;52.502;13.426;2024-02-26T10:52:15;100164.94;;;10.79;100.00
56928;BME280;60850;52.502;13.426;2024-02-26T10:54:47;100173.75;;;10.81;100.00
56928;BME280;60850;52.502;13.426;2024-02-26T10:57:15;100175.97;;;10.93;100.00
56928;BME280;60850;52.502;13.426;2024-02-26T10:59:43;100173.09;;;10.75;100.00
56928;BME280;60850;52.502;13.426;2024-02-26T11:02:13;100176.25;;;10.86;100.00
56928;BME280;60850;52.502;13.426;2024-02-26T11:04:41;100175.69;;;10.76;100.00
56928;BME280;60850;52.502;13.426;2024-02-26T11:07:09;100176.69;;;10.97;100.00
56928;BME280;60850;52.502;13.426;2024-02-26T11:09:37;100170.41;;;10.99;100.00
56928;BME280;60850;52.502;13.426;2024-02-26T11:12:11;100173.53;;;11.11;100.00
56928;BME280;60850;52.502;13.426;2024-02-26T11:14:40;100173.06;;;10.99;100.00
56928;BME280;60850;52.502;13.426;2024-02-26T11:17:08;100168.59;;;11.00;100.00
56928;BME280;60850;52.502;13.426;2024-02-26T11:19:38;100172.16;;;11.00;100.00
56928;BME280;60850;52.502;13.426;2024-02-26T11:22:05;100167.84;;;10.96;100.00
56928;BME280;60850;52.502;13.426;2024-02-26T11:24:33;100167.41;;;10.84;100.00
56928;BME280;60850;52.502;13.426;2024-02-26T11:27:06;100171.78;;;10.86;100.00
56928;BME280;60850;52.502;13.426;2024-02-26T11:29:40;100166.31;;;10.89;100.00
56928;BME280;60850;52.502;13.426;2024-02-26T11:32:09;100169.63;;;10.96;100.00
56928;BME280;60850;52.502;13.426;2024-02-26T11:34:38;100169.91;;;10.88;100.00
56928;BME280;60850;52.502;13.426;2024-02-26T11:37:09;100171.78;;;10.86;100.00
56928;BME280;60850;52.502;13.426;2024-02-26T11:39:37;100178.13;;;10.82;100.00
56928;BME280;60850;52.502;13.426;2024-02-26T11:42:07;100167.25;;;10.88;100.00
56928;BME280;60850;52.502;13.426;2024-02-26T11:44:35;100169.06;;;10.88;100.00
56928;BME280;60850;52.502;13.426;2024-02-26T11:47:12;100162.91;;;11.09;99.49
56928;BME280;60850;52.502;13.426;2024-02-26T11:49:40;100164.22;;;11.44;98.27
56928;BME280;60850;52.502;13.426;2024-02-26T11:52:08;100167.19;;;11.37;97.91
56928;BME280;60850;52.502;13.426;2024-02-26T11:54:39;100169.34;;;11.27;98.11
56928;BME280;60850;52.502;13.426;2024-02-26T11:57:23;100168.19;;;11.11;98.48
56928;BME280;60850;52.502;13.426;2024-02-26T11:59:52;100164.47;;;11.38;97.83
56928;BME280;60850;52.502;13.426;2024-02-26T12:02:39;100169.88;;;11.37;98.32
56928;BME280;60850;52.502;13.426;2024-02-26T12:05:09;100170.59;;;11.64;98.00
56928;BME280;60850;52.502;13.426;2024-02-26T12:07:39;100167.19;;;11.37;99.69
56928;BME280;60850;52.502;13.426;2024-02-26T12:13:05;100162.72;;;11.37;100.00
56928;BME280;60850;52.502;13.426;2024-02-26T12:15:37;100165.91;;;11.47;99.87
56928;BME280;60850;52.502;13.426;2024-02-26T12:18:06;100164.28;;;11.43;99.14
56928;BME280;60850;52.502;13.426;2024-02-26T12:20:36;100162.59;;;11.40;100.00
56928;BME280;60850;52.502;13.426;2024-02-26T12:23:04;100157.72;;;11.51;100.00
56928;BME280;60850;52.502;13.426;2024-02-26T12:25:32;100163.13;;;11.50;99.21
56928;BME280;60850;52.502;13.426;2024-02-26T12:27:59;100173.50;;;11.58;98.29
56928;BME280;60850;52.502;13.426;2024-02-26T12:30:27;100174.19;;;11.39;98.04
56928;BME280;60850;52.502;13.426;2024-02-26T12:32:56;100177.69;;;11.41;99.45
56928;BME280;60850;52.502;13.426;2024-02-26T12:35:25;100185.28;;;11.74;98.07
56928;BME280;60850;52.502;13.426;2024-02-26T12:37:52;100183.78;;;11.67;97.64
56928;BME280;60850;52.502;13.426;2024-02-26T12:40:21;100187.78;;;11.57;98.51
56928;BME280;60850;52.502;13.426;2024-02-26T12:42:48;100179.50;;;11.63;98.62
56928;BME280;60850;52.502;13.426;2024-02-26T12:45:15;100185.09;;;11.57;98.55
56928;BME280;60850;52.502;13.426;2024-02-26T12:47:43;100190.31;;;11.60;97.49
56928;BME280;60850;52.502;13.426;2024-02-26T12:50:13;100183.34;;;11.55;97.49